Terminal Aerodrome Forecast
Issued by NWS

Home | Current Version | Previous Version | Text Only | Print | Product List | Glossary On
Versions: 1 2 3 4 5 6 7 8 9 10 11 12 13 14 15
000
FTUS45 KRIW 251700
TAFLND
TAF
KLND 251720Z 2518/2618 VRB05KT P6SM -RA SCT024 OVC035
     FM252000 VRB06KT P6SM VCSH SCT030 BKN045
     FM260400 24007KT P6SM BKN050
     FM260900 VRB04KT P6SM VCFG FEW004 SCT050=

USA.gov is the U.S. government's official web portal to all federal, state and local government web resources and services.